createdAt,value
2022-09-12T00:01:24.539Z,11.56
2022-09-12T00:03:54.484Z,11.57
2022-09-12T00:06:25.464Z,11.54
2022-09-12T00:08:56.657Z,11.32
2022-09-12T00:11:26.941Z,11.43
2022-09-12T00:13:58.804Z,10.94
2022-09-12T00:16:29.649Z,11.36
2022-09-12T00:18:58.128Z,11.22
2022-09-12T00:21:26.639Z,11.38
2022-09-12T00:23:55.676Z,11.21
2022-09-12T00:26:26.096Z,11.27
2022-09-12T00:28:54.967Z,11.18
2022-09-12T00:31:25.555Z,11.23
2022-09-12T00:33:56.349Z,11.21
2022-09-12T00:36:26.796Z,10.88
2022-09-12T00:38:55.976Z,11.17
2022-09-12T00:41:27.790Z,11.00
2022-09-12T00:43:58.618Z,11.13
2022-09-12T00:46:37.152Z,11.10
2022-09-12T00:49:09.153Z,10.99
2022-09-12T00:51:38.824Z,10.90
2022-09-12T00:54:12.318Z,10.84
2022-09-12T00:56:45.018Z,10.78
2022-09-12T00:59:16.836Z,10.78
2022-09-12T01:01:48.190Z,10.78
2022-09-12T01:04:19.260Z,10.80
2022-09-12T01:06:49.307Z,10.83
2022-09-12T01:09:20.582Z,10.84
2022-09-12T01:11:52.044Z,10.86
2022-09-12T01:14:22.797Z,10.88
2022-09-12T01:16:52.448Z,10.83
2022-09-12T01:19:51.518Z,10.46
2022-09-12T01:22:36.400Z,10.79
2022-09-12T01:25:12.779Z,10.78
2022-09-12T01:27:52.464Z,10.73
2022-09-12T01:30:26.110Z,10.69
2022-09-12T01:33:23.019Z,10.66
2022-09-12T01:36:04.084Z,10.68
2022-09-12T01:38:39.012Z,10.53
2022-09-12T01:41:16.306Z,10.66
2022-09-12T01:43:52.679Z,10.69
2022-09-12T01:46:26.985Z,10.69
2022-09-12T01:49:00.352Z,10.71
2022-09-12T01:51:34.432Z,10.71
2022-09-12T01:54:10.130Z,10.29
2022-09-12T01:56:42.460Z,10.68
2022-09-12T01:59:18.212Z,10.67
2022-09-12T02:01:55.131Z,10.67
2022-09-12T02:04:31.122Z,10.66
2022-09-12T02:07:08.588Z,10.62
2022-09-12T02:09:39.829Z,10.61
2022-09-12T02:12:12.614Z,10.59
2022-09-12T02:14:46.000Z,10.58
2022-09-12T02:17:19.348Z,10.56
2022-09-12T02:19:51.555Z,10.49
2022-09-12T02:22:22.859Z,10.53
2022-09-12T02:24:56.135Z,10.30
2022-09-12T02:27:27.966Z,10.45
2022-09-12T02:29:56.500Z,10.47
2022-09-12T02:32:34.420Z,10.48
2022-09-12T02:35:07.484Z,10.39
2022-09-12T02:37:51.776Z,9.67
2022-09-12T02:40:20.633Z,10.36
2022-09-12T02:42:49.376Z,10.31
2022-09-12T02:45:18.153Z,10.31
2022-09-12T02:47:52.144Z,10.28
2022-09-12T02:50:21.036Z,9.94
2022-09-12T02:52:50.269Z,10.06
2022-09-12T02:55:19.184Z,10.20
2022-09-12T02:57:47.518Z,10.17
2022-09-12T03:00:16.554Z,10.16
2022-09-12T03:03:10.648Z,10.17
2022-09-12T03:05:44.850Z,10.15
2022-09-12T03:08:27.152Z,10.16
2022-09-12T03:11:09.262Z,10.16
2022-09-12T03:13:46.558Z,10.16
2022-09-12T03:16:21.971Z,10.15
2022-09-12T03:19:00.331Z,10.15
2022-09-12T03:21:35.135Z,10.14
2022-09-12T03:24:15.536Z,10.13
2022-09-12T03:26:49.039Z,10.11
2022-09-12T03:29:20.640Z,10.13
2022-09-12T03:31:54.323Z,10.08
2022-09-12T03:34:24.887Z,9.91
2022-09-12T03:36:55.872Z,9.95
2022-09-12T03:39:26.619Z,9.98
2022-09-12T03:41:55.107Z,9.95
2022-09-12T03:44:23.655Z,9.67
2022-09-12T03:46:51.975Z,9.91
2022-09-12T03:49:20.401Z,9.89
2022-09-12T03:51:50.568Z,9.88
2022-09-12T03:54:18.964Z,9.84
2022-09-12T03:56:47.547Z,9.85
2022-09-12T03:59:15.932Z,9.87
2022-09-12T04:01:44.340Z,9.90
2022-09-12T04:04:15.187Z,9.91
2022-09-12T04:06:44.307Z,9.90
2022-09-12T04:09:14.434Z,9.90
2022-09-12T04:11:42.892Z,9.91
2022-09-12T04:14:11.223Z,9.90
2022-09-12T04:16:39.649Z,9.89
2022-09-12T04:19:08.052Z,9.88
2022-09-12T04:21:36.859Z,9.88
2022-09-12T04:24:05.577Z,9.91
2022-09-12T04:26:35.427Z,9.94
2022-09-12T04:29:03.832Z,9.97
2022-09-12T04:31:32.212Z,9.96
2022-09-12T04:34:02.674Z,9.95
2022-09-12T04:36:31.576Z,9.94
2022-09-12T04:39:00.504Z,9.91
2022-09-12T04:41:30.908Z,9.90
2022-09-12T04:44:03.291Z,9.89
2022-09-12T04:46:34.983Z,9.84
2022-09-12T04:49:03.455Z,9.83
2022-09-12T04:51:33.999Z,9.83
2022-09-12T04:54:04.873Z,9.82
2022-09-12T04:56:34.517Z,9.81
2022-09-12T04:59:04.365Z,9.81
2022-09-12T05:01:33.163Z,9.81
2022-09-12T05:04:02.380Z,9.82
2022-09-12T05:06:32.548Z,9.82
2022-09-12T05:09:02.108Z,9.81
2022-09-12T05:11:59.790Z,9.82
2022-09-12T05:14:22.911Z,9.84
2022-09-12T05:16:51.336Z,9.86
2022-09-12T05:19:19.990Z,9.87
2022-09-12T05:21:48.377Z,9.89
2022-09-12T05:24:17.175Z,9.94
2022-09-12T05:26:45.480Z,9.96
2022-09-12T05:29:14.223Z,9.99
2022-09-12T05:31:43.956Z,10.02
2022-09-12T05:34:12.836Z,9.81
2022-09-12T05:36:41.708Z,10.11
2022-09-12T05:39:10.130Z,10.12
2022-09-12T05:41:38.520Z,10.14
2022-09-12T05:44:08.773Z,10.17
2022-09-12T05:46:39.704Z,9.81
2022-09-12T05:49:11.584Z,10.22
2022-09-12T05:51:41.999Z,10.25
2022-09-12T05:54:12.357Z,10.28
2022-09-12T05:56:42.689Z,10.36
2022-09-12T05:59:14.323Z,10.42
2022-09-12T06:01:42.812Z,10.46
2022-09-12T06:04:13.415Z,10.49
2022-09-12T06:06:45.209Z,10.50
2022-09-12T06:09:14.749Z,10.53
2022-09-12T06:11:43.770Z,10.58
2022-09-12T06:14:13.473Z,10.63
2022-09-12T06:16:42.223Z,10.68
2022-09-12T06:19:17.528Z,10.75
2022-09-12T06:21:46.292Z,10.50
2022-09-12T06:24:14.761Z,10.86
2022-09-12T06:26:43.992Z,10.92
2022-09-12T06:29:13.507Z,10.94
2022-09-12T06:31:43.386Z,10.99
2022-09-12T06:34:14.203Z,11.03
2022-09-12T06:36:45.679Z,10.86
2022-09-12T06:39:16.400Z,11.11
2022-09-12T06:41:45.528Z,11.18
2022-09-12T06:44:16.531Z,10.77
2022-09-12T06:46:45.800Z,11.24
2022-09-12T06:49:15.065Z,11.22
2022-09-12T06:51:44.995Z,11.13
2022-09-12T06:54:15.576Z,11.26
2022-09-12T06:56:44.264Z,11.46
2022-09-12T06:59:12.675Z,11.50
2022-09-12T07:01:42.092Z,11.43
2022-09-12T07:04:11.968Z,11.60
2022-09-12T07:06:41.589Z,11.66
2022-09-12T07:09:13.462Z,11.71
2022-09-12T07:11:43.924Z,11.75
2022-09-12T07:14:14.292Z,11.80
2022-09-12T07:16:43.027Z,11.69
2022-09-12T07:19:12.257Z,11.91
2022-09-12T07:21:41.742Z,11.96
2022-09-12T07:24:12.134Z,11.72
2022-09-12T07:26:42.452Z,12.09
2022-09-12T07:32:05.849Z,12.18
2022-09-12T07:34:34.604Z,11.85
2022-09-12T07:37:02.937Z,12.33
2022-09-12T07:39:33.148Z,12.39
2022-09-12T07:42:01.923Z,12.46
2022-09-12T07:44:30.757Z,12.52
2022-09-12T07:46:59.395Z,12.58
2022-09-12T07:49:27.800Z,12.63
2022-09-12T07:51:56.298Z,12.71
2022-09-12T07:54:24.731Z,12.74
2022-09-12T07:56:54.515Z,12.79
2022-09-12T07:59:48.370Z,12.86
2022-09-12T08:02:17.540Z,12.92
2022-09-12T08:04:46.760Z,12.97
2022-09-12T08:07:15.119Z,12.79
2022-09-12T08:09:43.496Z,13.07
2022-09-12T08:12:13.338Z,13.16
2022-09-12T08:14:41.836Z,13.30
2022-09-12T08:17:10.267Z,13.35
2022-09-12T08:19:39.287Z,13.35
2022-09-12T08:22:07.615Z,13.47
2022-09-12T08:24:36.007Z,13.54
2022-09-12T08:27:04.835Z,13.61
2022-09-12T08:29:34.731Z,13.66
2022-09-12T08:32:03.204Z,13.70
2022-09-12T08:34:31.670Z,13.78
2022-09-12T08:37:00.065Z,13.88
2022-09-12T08:39:28.434Z,13.91
2022-09-12T08:42:03.222Z,13.94
2022-09-12T08:45:02.511Z,14.02
2022-09-12T08:47:35.360Z,14.09
2022-09-12T08:50:15.543Z,14.18
2022-09-12T08:52:53.413Z,14.28
2022-09-12T08:55:29.151Z,14.30
2022-09-12T08:57:57.636Z,14.35
2022-09-12T09:00:32.319Z,14.30
2022-09-12T09:03:14.885Z,14.15
2022-09-12T09:05:51.557Z,14.53
2022-09-12T09:08:40.192Z,14.61
2022-09-12T09:11:23.728Z,14.75
2022-09-12T09:14:30.031Z,14.74
2022-09-12T09:17:01.546Z,14.82
2022-09-12T09:19:34.207Z,14.88
2022-09-12T09:22:06.833Z,14.76
2022-09-12T09:24:40.889Z,15.05
2022-09-12T09:27:39.280Z,14.81
2022-09-12T09:30:06.147Z,15.11
2022-09-12T09:32:39.613Z,15.14
2022-09-12T09:35:18.928Z,15.17
2022-09-12T09:38:12.574Z,15.24
2022-09-12T09:40:53.895Z,15.34
2022-09-12T09:43:24.461Z,15.42
2022-09-12T09:45:54.230Z,15.50
2022-09-12T09:48:27.497Z,15.64
2022-09-12T09:50:56.101Z,15.72
2022-09-12T09:53:33.768Z,15.82
2022-09-12T09:56:07.368Z,15.83
2022-09-12T09:58:36.497Z,15.79
2022-09-12T10:01:07.059Z,15.82
2022-09-12T10:03:39.827Z,16.13
2022-09-12T10:06:22.624Z,15.95
2022-09-12T10:08:52.292Z,16.26
2022-09-12T10:11:23.212Z,16.37
2022-09-12T10:13:57.075Z,16.42
2022-09-12T10:16:28.205Z,16.52
2022-09-12T10:18:59.303Z,16.49
2022-09-12T10:21:35.025Z,16.62
2022-09-12T10:24:07.944Z,16.62
2022-09-12T10:26:40.504Z,16.73
2022-09-12T10:29:17.119Z,16.82
2022-09-12T10:31:51.491Z,16.85
2022-09-12T10:34:28.099Z,16.97
2022-09-12T10:37:03.035Z,17.05
2022-09-12T10:39:33.573Z,16.94
2022-09-12T10:42:02.407Z,17.04
2022-09-12T10:44:32.993Z,17.04
2022-09-12T10:47:20.711Z,17.07
2022-09-12T10:49:51.343Z,17.05
2022-09-12T10:52:23.831Z,16.71
2022-09-12T10:54:52.518Z,17.03
2022-09-12T10:57:53.181Z,17.05
2022-09-12T11:00:28.007Z,17.14
2022-09-12T11:03:07.077Z,17.18
2022-09-12T11:05:46.620Z,17.23
2022-09-12T11:08:38.874Z,17.11
2022-09-12T11:11:16.116Z,17.33
2022-09-12T11:14:03.516Z,17.36
2022-09-12T11:16:41.099Z,17.36
2022-09-12T11:19:29.832Z,17.44
2022-09-12T11:22:15.626Z,17.40
2022-09-12T11:24:57.164Z,17.42
2022-09-12T11:27:39.196Z,17.23
2022-09-12T11:30:12.387Z,17.39
2022-09-12T11:33:15.401Z,17.48
2022-09-12T11:35:54.981Z,17.51
2022-09-12T11:38:50.765Z,17.63
2022-09-12T11:41:25.097Z,17.72
2022-09-12T11:43:59.269Z,17.73
2022-09-12T11:46:36.379Z,17.74
2022-09-12T11:49:15.799Z,17.73
2022-09-12T11:51:49.682Z,17.72
2022-09-12T11:54:25.990Z,17.78
2022-09-12T11:57:02.280Z,17.82
2022-09-12T11:59:38.479Z,17.82
2022-09-12T12:02:13.740Z,17.84
2022-09-12T12:04:51.837Z,17.94
2022-09-12T12:07:20.413Z,17.95
2022-09-12T12:09:55.689Z,18.13
2022-09-12T12:12:28.930Z,18.09
2022-09-12T12:14:59.222Z,18.08
2022-09-12T12:17:29.815Z,18.14
2022-09-12T12:20:05.529Z,18.08
2022-09-12T12:22:36.212Z,18.22
2022-09-12T12:25:29.628Z,18.13
2022-09-12T12:28:02.004Z,18.27
2022-09-12T12:31:02.230Z,18.35
2022-09-12T12:34:02.836Z,18.38
2022-09-12T12:36:41.975Z,18.44
2022-09-12T12:39:55.842Z,18.55
2022-09-12T12:43:06.374Z,17.89
2022-09-12T12:46:06.484Z,18.24
2022-09-12T12:48:45.665Z,18.59
2022-09-12T12:51:26.075Z,18.65
2022-09-12T12:53:56.016Z,18.71
2022-09-12T12:56:33.722Z,18.82
2022-09-12T12:59:04.757Z,18.74
2022-09-12T13:01:41.203Z,18.95
2022-09-12T13:04:17.067Z,18.97
2022-09-12T13:06:47.956Z,18.94
2022-09-12T13:09:28.702Z,18.84
2022-09-12T13:12:05.493Z,18.76
2022-09-12T13:14:39.083Z,18.77
2022-09-12T13:17:09.550Z,18.70
2022-09-12T13:19:39.550Z,18.68
2022-09-12T13:22:10.808Z,18.70
2022-09-12T13:24:45.165Z,18.78
2022-09-12T13:27:19.998Z,18.77
2022-09-12T13:29:48.342Z,18.76
2022-09-12T13:32:19.786Z,18.56
2022-09-12T13:35:05.819Z,18.78
2022-09-12T13:37:51.587Z,18.82
2022-09-12T13:40:35.156Z,18.76
2022-09-12T13:43:15.200Z,18.76
2022-09-12T13:45:45.852Z,18.74
2022-09-12T13:48:20.378Z,18.81
2022-09-12T13:50:53.699Z,18.84
2022-09-12T13:53:25.269Z,18.09
2022-09-12T13:55:57.647Z,18.76
2022-09-12T13:58:27.772Z,18.83
2022-09-12T14:01:04.584Z,18.84
2022-09-12T14:03:56.815Z,18.63
2022-09-12T14:06:27.862Z,18.73
2022-09-12T14:08:59.103Z,18.75
2022-09-12T14:11:29.788Z,18.75
2022-09-12T14:13:59.036Z,18.85
2022-09-12T14:16:29.213Z,18.83
2022-09-12T14:19:00.764Z,18.85
2022-09-12T14:21:35.827Z,18.80
2022-09-12T14:24:07.508Z,18.27
2022-09-12T14:26:37.714Z,18.85
2022-09-12T14:29:07.865Z,18.88
2022-09-12T14:31:37.797Z,18.88
2022-09-12T14:34:15.878Z,18.82
2022-09-12T14:36:47.941Z,18.72
2022-09-12T14:39:30.305Z,18.77
2022-09-12T14:42:08.040Z,18.82
2022-09-12T14:44:37.573Z,18.89
2022-09-12T14:47:16.265Z,18.87
2022-09-12T14:49:46.180Z,18.86
2022-09-12T14:52:26.354Z,18.87
2022-09-12T14:54:58.942Z,18.82
2022-09-12T14:57:39.084Z,18.85
2022-09-12T15:00:28.158Z,18.91
2022-09-12T15:02:56.733Z,18.94
2022-09-12T15:05:29.191Z,19.02
2022-09-12T15:08:00.765Z,19.01
2022-09-12T15:10:33.167Z,18.69
2022-09-12T15:13:22.610Z,18.91
2022-09-12T15:15:53.477Z,18.71
2022-09-12T15:18:23.091Z,18.91
2022-09-12T15:20:56.358Z,18.87
2022-09-12T15:23:43.977Z,18.78
2022-09-12T15:26:14.677Z,18.76
2022-09-12T15:28:43.261Z,18.71
2022-09-12T15:31:17.335Z,18.70
2022-09-12T15:33:46.401Z,18.66
2022-09-12T15:36:18.909Z,18.65
2022-09-12T15:38:48.400Z,18.64
2022-09-12T15:41:20.220Z,18.55
2022-09-12T15:43:49.229Z,18.66
2022-09-12T15:46:19.399Z,18.50
2022-09-12T15:48:47.911Z,18.66
2022-09-12T15:51:19.404Z,18.69
2022-09-12T15:53:49.278Z,18.55
2022-09-12T15:56:19.107Z,18.64
2022-09-12T15:58:58.106Z,18.64
2022-09-12T16:01:27.963Z,18.16
2022-09-12T16:03:56.453Z,18.28
2022-09-12T16:06:27.250Z,18.56
2022-09-12T16:08:55.652Z,18.54
2022-09-12T16:11:25.954Z,18.54
2022-09-12T16:13:55.369Z,18.52
2022-09-12T16:16:24.417Z,18.50
2022-09-12T16:18:52.916Z,18.49
2022-09-12T16:21:21.388Z,18.28
2022-09-12T16:23:51.679Z,18.42
2022-09-12T16:26:20.075Z,18.25
2022-09-12T16:28:48.778Z,18.26
2022-09-12T16:31:17.270Z,18.15
2022-09-12T16:33:45.712Z,18.17
2022-09-12T16:36:16.056Z,18.18
2022-09-12T16:38:45.146Z,18.06
2022-09-12T16:41:16.580Z,18.05
2022-09-12T16:43:45.697Z,17.99
2022-09-12T16:46:16.689Z,17.92
2022-09-12T16:48:51.577Z,17.86
2022-09-12T16:51:23.012Z,17.79
2022-09-12T16:53:52.896Z,17.70
2022-09-12T16:56:23.032Z,17.63
2022-09-12T16:58:51.839Z,17.00
2022-09-12T17:01:22.117Z,17.46
2022-09-12T17:03:54.860Z,17.38
2022-09-12T17:06:23.440Z,17.29
2022-09-12T17:08:54.692Z,17.09
2022-09-12T17:11:26.625Z,17.03
2022-09-12T17:14:06.056Z,17.10
2022-09-12T17:16:36.633Z,17.03
2022-09-12T17:19:05.849Z,16.99
2022-09-12T17:21:35.448Z,16.72
2022-09-12T17:24:04.592Z,16.88
2022-09-12T17:26:34.735Z,16.80
2022-09-12T17:29:03.612Z,16.74
2022-09-12T17:31:32.854Z,16.65
2022-09-12T17:34:02.625Z,16.60
2022-09-12T17:36:32.524Z,16.54
2022-09-12T17:39:01.054Z,16.47
2022-09-12T17:41:32.016Z,16.41
2022-09-12T17:44:03.702Z,16.18
2022-09-12T17:46:35.249Z,16.12
2022-09-12T17:49:05.547Z,16.28
2022-09-12T17:51:34.226Z,16.16
2022-09-12T17:54:05.717Z,16.21
2022-09-12T17:56:35.811Z,16.02
2022-09-12T17:59:07.867Z,15.65
2022-09-12T18:01:53.702Z,15.93
2022-09-12T18:04:22.442Z,15.90
2022-09-12T18:06:51.132Z,15.96
2022-09-12T18:09:22.187Z,15.95
2022-09-12T18:11:51.110Z,15.93
2022-09-12T18:14:21.288Z,15.89
2022-09-12T18:16:49.869Z,15.86
2022-09-12T18:19:18.803Z,15.82
2022-09-12T18:21:47.776Z,15.80
2022-09-12T18:24:16.639Z,15.79
2022-09-12T18:26:45.076Z,15.75
2022-09-12T18:29:17.001Z,15.73
2022-09-12T18:31:47.578Z,15.53
2022-09-12T18:34:16.456Z,15.58
2022-09-12T18:36:47.079Z,15.59
2022-09-12T18:39:16.141Z,15.55
2022-09-12T18:41:45.150Z,15.52
2022-09-12T18:44:13.883Z,15.51
2022-09-12T18:46:42.396Z,15.48
2022-09-12T18:49:12.860Z,15.50
2022-09-12T18:51:42.013Z,15.46
2022-09-12T18:54:14.310Z,15.29
2022-09-12T18:56:44.135Z,15.44
2022-09-12T18:59:15.128Z,15.43
2022-09-12T19:01:44.125Z,15.40
2022-09-12T19:04:16.905Z,15.35
2022-09-12T19:06:46.586Z,15.29
2022-09-12T19:09:16.839Z,15.38
2022-09-12T19:11:49.897Z,15.32
2022-09-12T19:14:19.962Z,15.29
2022-09-12T19:16:48.352Z,15.28
2022-09-12T19:19:18.600Z,15.25
2022-09-12T19:21:47.777Z,15.23
2022-09-12T19:24:17.248Z,15.23
2022-09-12T19:26:46.518Z,15.21
2022-09-12T19:29:16.760Z,15.21
2022-09-12T19:31:45.404Z,15.18
2022-09-12T19:34:14.538Z,15.18
2022-09-12T19:36:46.262Z,15.16
2022-09-12T19:39:19.742Z,15.15
2022-09-12T19:41:48.920Z,15.16
2022-09-12T19:44:19.440Z,14.91
2022-09-12T19:46:47.909Z,15.07
2022-09-12T19:49:16.484Z,15.03
2022-09-12T19:51:46.313Z,15.04
2022-09-12T19:54:14.680Z,14.84
2022-09-12T19:56:43.285Z,14.95
2022-09-12T19:59:11.972Z,15.05
2022-09-12T20:01:40.434Z,14.80
2022-09-12T20:04:09.087Z,14.97
2022-09-12T20:06:37.447Z,14.98
2022-09-12T20:09:07.386Z,14.94
2022-09-12T20:11:35.792Z,14.92
2022-09-12T20:14:04.371Z,14.87
2022-09-12T20:16:33.702Z,14.91
2022-09-12T20:19:06.163Z,14.61
2022-09-12T20:21:36.184Z,14.68
2022-09-12T20:24:08.392Z,14.80
2022-09-12T20:26:37.245Z,14.85
2022-09-12T20:29:06.137Z,14.83
2022-09-12T20:31:35.841Z,14.60
2022-09-12T20:34:04.772Z,14.87
2022-09-12T20:36:33.281Z,14.88
2022-09-12T20:39:02.849Z,14.91
2022-09-12T20:41:35.848Z,14.91
2022-09-12T20:44:04.559Z,14.90
2022-09-12T20:46:33.306Z,14.91
2022-09-12T20:49:01.795Z,14.90
2022-09-12T20:51:30.608Z,14.90
2022-09-12T20:54:00.205Z,14.87
2022-09-12T20:56:29.624Z,14.83
2022-09-12T20:59:00.905Z,14.82
2022-09-12T21:01:31.590Z,14.40
2022-09-12T21:04:01.353Z,14.76
2022-09-12T21:06:29.845Z,14.73
2022-09-12T21:09:00.760Z,14.70
2022-09-12T21:11:30.052Z,14.67
2022-09-12T21:13:59.961Z,14.66
2022-09-12T21:16:28.480Z,14.61
2022-09-12T21:18:58.818Z,14.59
2022-09-12T21:21:27.952Z,14.55
2022-09-12T21:24:00.003Z,14.55
2022-09-12T21:26:28.497Z,14.54
2022-09-12T21:28:56.907Z,14.51
2022-09-12T21:31:27.194Z,14.46
2022-09-12T21:33:55.662Z,14.39
2022-09-12T21:36:25.181Z,14.33
2022-09-12T21:38:53.592Z,14.29
2022-09-12T21:41:21.952Z,14.23
2022-09-12T21:43:50.923Z,14.18
2022-09-12T21:46:19.881Z,14.12
2022-09-12T21:48:49.990Z,14.07
2022-09-12T21:51:18.444Z,14.01
2022-09-12T21:53:47.581Z,13.96
2022-09-12T21:56:16.089Z,13.91
2022-09-12T21:58:44.876Z,13.88
2022-09-12T22:01:13.580Z,13.86
2022-09-12T22:03:43.214Z,13.71
2022-09-12T22:06:14.369Z,13.74
2022-09-12T22:08:42.790Z,13.55
2022-09-12T22:11:11.899Z,13.23
2022-09-12T22:13:43.540Z,13.42
2022-09-12T22:16:12.304Z,13.52
2022-09-12T22:18:40.970Z,13.46
2022-09-12T22:21:13.274Z,13.41
2022-09-12T22:24:01.217Z,13.27
2022-09-12T22:26:30.236Z,13.13
2022-09-12T22:28:58.654Z,13.11
2022-09-12T22:31:27.476Z,13.02
2022-09-12T22:33:57.231Z,12.97
2022-09-12T22:36:30.518Z,12.93
2022-09-12T22:39:01.355Z,12.89
2022-09-12T22:41:30.246Z,12.81
2022-09-12T22:43:58.939Z,12.70
2022-09-12T22:46:27.722Z,12.60
2022-09-12T22:48:56.979Z,12.56
2022-09-12T22:51:25.555Z,12.51
2022-09-12T22:53:54.695Z,12.50
2022-09-12T22:56:25.061Z,12.47
2022-09-12T22:58:53.643Z,12.49
2022-09-12T23:01:22.382Z,12.46
2022-09-12T23:03:51.012Z,12.19
2022-09-12T23:06:19.629Z,12.35
2022-09-12T23:08:48.075Z,12.25
2022-09-12T23:11:19.249Z,12.34
2022-09-12T23:13:51.115Z,12.31
2022-09-12T23:16:21.468Z,12.23
2022-09-12T23:18:50.314Z,12.33
2022-09-12T23:21:20.437Z,12.29
2022-09-12T23:23:49.386Z,12.27
2022-09-12T23:26:19.413Z,12.29
2022-09-12T23:28:53.020Z,12.23
2022-09-12T23:31:22.058Z,12.21
2022-09-12T23:33:51.396Z,12.02
2022-09-12T23:36:19.758Z,12.25
2022-09-12T23:38:48.758Z,12.08
2022-09-12T23:41:18.366Z,12.20
2022-09-12T23:43:47.338Z,12.19
2022-09-12T23:46:19.007Z,12.21
2022-09-12T23:48:47.703Z,12.19
2022-09-12T23:51:17.090Z,11.90
2022-09-12T23:53:45.454Z,12.20
2022-09-12T23:56:14.090Z,12.22
2022-09-12T23:58:42.531Z,12.25
